sensor_id;sensor_type;location;lat;lon;timestamp;P1;durP1;ratioP1;P2;durP2;ratioP2
62151;SDS011;48139;47.474;19.034;2022-09-28T00:01:52;3.12;;;1.20;;
62151;SDS011;48139;47.474;19.034;2022-09-28T00:04:55;1.60;;;0.70;;
62151;SDS011;48139;47.474;19.034;2022-09-28T00:07:57;3.03;;;1.27;;
62151;SDS011;48139;47.474;19.034;2022-09-28T00:11:00;1.77;;;1.27;;
62151;SDS011;48139;47.474;19.034;2022-09-28T00:14:03;1.17;;;0.88;;
62151;SDS011;48139;47.474;19.034;2022-09-28T00:17:08;3.15;;;1.12;;
62151;SDS011;48139;47.474;19.034;2022-09-28T00:20:11;1.48;;;0.88;;
62151;SDS011;48139;47.474;19.034;2022-09-28T00:23:14;1.73;;;0.88;;
62151;SDS011;48139;47.474;19.034;2022-09-28T00:26:16;2.42;;;1.20;;
62151;SDS011;48139;47.474;19.034;2022-09-28T00:29:23;2.05;;;1.00;;
62151;SDS011;48139;47.474;19.034;2022-09-28T00:32:33;6.62;;;1.20;;
62151;SDS011;48139;47.474;19.034;2022-09-28T00:35:36;2.28;;;1.00;;
62151;SDS011;48139;47.474;19.034;2022-09-28T00:38:38;4.10;;;1.00;;
62151;SDS011;48139;47.474;19.034;2022-09-28T00:41:42;2.35;;;1.05;;
62151;SDS011;48139;47.474;19.034;2022-09-28T00:47:53;0.98;;;0.93;;
62151;SDS011;48139;47.474;19.034;2022-09-28T00:50:58;5.37;;;1.48;;
62151;SDS011;48139;47.474;19.034;2022-09-28T00:54:03;3.55;;;1.40;;
62151;SDS011;48139;47.474;19.034;2022-09-28T00:57:08;2.50;;;1.42;;
62151;SDS011;48139;47.474;19.034;2022-09-28T01:00:11;3.08;;;1.60;;
62151;SDS011;48139;47.474;19.034;2022-09-28T01:03:15;5.97;;;1.20;;
62151;SDS011;48139;47.474;19.034;2022-09-28T01:06:19;3.35;;;1.00;;
62151;SDS011;48139;47.474;19.034;2022-09-28T01:09:24;3.08;;;1.15;;
62151;SDS011;48139;47.474;19.034;2022-09-28T01:12:29;2.10;;;1.35;;
62151;SDS011;48139;47.474;19.034;2022-09-28T01:15:31;3.22;;;1.90;;
62151;SDS011;48139;47.474;19.034;2022-09-28T01:25:53;1.25;;;0.93;;
62151;SDS011;48139;47.474;19.034;2022-09-28T01:29:20;2.70;;;1.23;;
62151;SDS011;48139;47.474;19.034;2022-09-28T01:36:07;2.85;;;0.80;;
62151;SDS011;48139;47.474;19.034;2022-09-28T01:39:29;2.15;;;1.10;;
62151;SDS011;48139;47.474;19.034;2022-09-28T01:42:35;1.95;;;1.05;;
62151;SDS011;48139;47.474;19.034;2022-09-28T01:45:47;1.73;;;0.70;;
62151;SDS011;48139;47.474;19.034;2022-09-28T01:48:57;1.20;;;0.90;;
62151;SDS011;48139;47.474;19.034;2022-09-28T01:55:19;4.45;;;1.05;;
62151;SDS011;48139;47.474;19.034;2022-09-28T01:59:14;2.65;;;0.80;;
62151;SDS011;48139;47.474;19.034;2022-09-28T02:02:22;1.75;;;0.93;;
62151;SDS011;48139;47.474;19.034;2022-09-28T02:05:29;1.87;;;0.80;;
62151;SDS011;48139;47.474;19.034;2022-09-28T02:08:36;4.20;;;1.27;;
62151;SDS011;48139;47.474;19.034;2022-09-28T02:11:47;2.30;;;1.20;;
62151;SDS011;48139;47.474;19.034;2022-09-28T02:14:56;1.75;;;0.90;;
62151;SDS011;48139;47.474;19.034;2022-09-28T02:18:05;6.50;;;0.95;;
62151;SDS011;48139;47.474;19.034;2022-09-28T02:21:12;1.80;;;1.00;;
62151;SDS011;48139;47.474;19.034;2022-09-28T02:30:55;2.95;;;0.85;;
62151;SDS011;48139;47.474;19.034;2022-09-28T02:33:57;2.47;;;0.80;;
62151;SDS011;48139;47.474;19.034;2022-09-28T02:37:00;3.50;;;1.85;;
62151;SDS011;48139;47.474;19.034;2022-09-28T02:40:10;2.33;;;1.25;;
62151;SDS011;48139;47.474;19.034;2022-09-28T02:43:22;2.60;;;1.00;;
62151;SDS011;48139;47.474;19.034;2022-09-28T02:49:53;5.85;;;2.55;;
62151;SDS011;48139;47.474;19.034;2022-09-28T02:56:27;3.72;;;1.42;;
62151;SDS011;48139;47.474;19.034;2022-09-28T03:03:08;8.45;;;1.90;;
62151;SDS011;48139;47.474;19.034;2022-09-28T03:06:14;5.05;;;2.03;;
62151;SDS011;48139;47.474;19.034;2022-09-28T03:09:48;3.03;;;1.20;;
62151;SDS011;48139;47.474;19.034;2022-09-28T03:12:59;3.75;;;1.70;;
62151;SDS011;48139;47.474;19.034;2022-09-28T03:16:09;2.35;;;1.35;;
62151;SDS011;48139;47.474;19.034;2022-09-28T03:19:15;4.55;;;1.20;;
62151;SDS011;48139;47.474;19.034;2022-09-28T03:22:20;2.05;;;1.05;;
62151;SDS011;48139;47.474;19.034;2022-09-28T03:25:22;5.85;;;1.60;;
62151;SDS011;48139;47.474;19.034;2022-09-28T03:28:25;1.93;;;1.20;;
62151;SDS011;48139;47.474;19.034;2022-09-28T03:34:31;5.65;;;2.67;;
62151;SDS011;48139;47.474;19.034;2022-09-28T03:37:34;4.05;;;1.92;;
62151;SDS011;48139;47.474;19.034;2022-09-28T03:43:39;3.25;;;1.90;;
62151;SDS011;48139;47.474;19.034;2022-09-28T03:46:42;2.53;;;1.55;;
62151;SDS011;48139;47.474;19.034;2022-09-28T03:49:45;2.67;;;1.52;;
62151;SDS011;48139;47.474;19.034;2022-09-28T03:52:48;1.27;;;0.85;;
62151;SDS011;48139;47.474;19.034;2022-09-28T03:58:55;2.97;;;1.60;;
62151;SDS011;48139;47.474;19.034;2022-09-28T04:02:00;5.80;;;1.65;;
62151;SDS011;48139;47.474;19.034;2022-09-28T04:05:02;3.60;;;1.00;;
62151;SDS011;48139;47.474;19.034;2022-09-28T04:08:05;2.57;;;1.20;;
62151;SDS011;48139;47.474;19.034;2022-09-28T04:11:08;2.97;;;1.08;;
62151;SDS011;48139;47.474;19.034;2022-09-28T04:14:10;2.80;;;1.30;;
62151;SDS011;48139;47.474;19.034;2022-09-28T04:17:13;1.70;;;1.40;;
62151;SDS011;48139;47.474;19.034;2022-09-28T04:20:15;1.25;;;0.98;;
62151;SDS011;48139;47.474;19.034;2022-09-28T04:23:19;2.58;;;1.35;;
62151;SDS011;48139;47.474;19.034;2022-09-28T04:26:23;3.37;;;1.20;;
62151;SDS011;48139;47.474;19.034;2022-09-28T04:29:27;3.72;;;1.10;;
62151;SDS011;48139;47.474;19.034;2022-09-28T04:32:29;1.65;;;0.98;;
62151;SDS011;48139;47.474;19.034;2022-09-28T04:35:32;0.90;;;0.83;;
62151;SDS011;48139;47.474;19.034;2022-09-28T04:38:36;2.10;;;1.00;;
62151;SDS011;48139;47.474;19.034;2022-09-28T04:41:54;2.15;;;1.17;;
62151;SDS011;48139;47.474;19.034;2022-09-28T04:44:57;3.42;;;1.30;;
62151;SDS011;48139;47.474;19.034;2022-09-28T04:48:04;2.78;;;1.48;;
62151;SDS011;48139;47.474;19.034;2022-09-28T04:51:11;3.20;;;1.10;;
62151;SDS011;48139;47.474;19.034;2022-09-28T04:54:14;1.77;;;1.12;;
62151;SDS011;48139;47.474;19.034;2022-09-28T04:57:16;1.90;;;1.00;;
62151;SDS011;48139;47.474;19.034;2022-09-28T05:00:19;4.82;;;1.00;;
62151;SDS011;48139;47.474;19.034;2022-09-28T05:03:24;2.22;;;1.10;;
62151;SDS011;48139;47.474;19.034;2022-09-28T05:09:32;6.70;;;1.52;;
62151;SDS011;48139;47.474;19.034;2022-09-28T05:12:39;2.55;;;1.17;;
62151;SDS011;48139;47.474;19.034;2022-09-28T05:15:42;4.35;;;1.60;;
62151;SDS011;48139;47.474;19.034;2022-09-28T05:18:45;3.30;;;1.50;;
62151;SDS011;48139;47.474;19.034;2022-09-28T05:21:48;2.80;;;1.67;;
62151;SDS011;48139;47.474;19.034;2022-09-28T05:24:51;2.60;;;1.50;;
62151;SDS011;48139;47.474;19.034;2022-09-28T05:27:56;4.05;;;1.48;;
62151;SDS011;48139;47.474;19.034;2022-09-28T05:31:02;3.92;;;2.03;;
62151;SDS011;48139;47.474;19.034;2022-09-28T05:34:06;7.18;;;2.97;;
62151;SDS011;48139;47.474;19.034;2022-09-28T05:37:09;4.85;;;3.05;;
62151;SDS011;48139;47.474;19.034;2022-09-28T05:40:12;4.28;;;2.67;;
62151;SDS011;48139;47.474;19.034;2022-09-28T05:43:15;4.97;;;2.30;;
62151;SDS011;48139;47.474;19.034;2022-09-28T05:46:17;3.30;;;2.50;;
62151;SDS011;48139;47.474;19.034;2022-09-28T05:49:22;5.20;;;1.77;;
62151;SDS011;48139;47.474;19.034;2022-09-28T05:52:24;4.50;;;1.95;;
62151;SDS011;48139;47.474;19.034;2022-09-28T05:55:28;3.72;;;1.90;;
62151;SDS011;48139;47.474;19.034;2022-09-28T05:58:31;4.20;;;1.70;;
62151;SDS011;48139;47.474;19.034;2022-09-28T06:01:34;5.87;;;2.00;;
62151;SDS011;48139;47.474;19.034;2022-09-28T06:04:37;3.97;;;2.10;;
62151;SDS011;48139;47.474;19.034;2022-09-28T06:07:39;3.67;;;2.00;;
62151;SDS011;48139;47.474;19.034;2022-09-28T06:10:42;5.80;;;3.17;;
62151;SDS011;48139;47.474;19.034;2022-09-28T06:13:45;5.68;;;2.70;;
62151;SDS011;48139;47.474;19.034;2022-09-28T06:16:47;4.40;;;2.33;;
62151;SDS011;48139;47.474;19.034;2022-09-28T06:19:51;3.58;;;1.98;;
62151;SDS011;48139;47.474;19.034;2022-09-28T06:22:55;3.78;;;1.83;;
62151;SDS011;48139;47.474;19.034;2022-09-28T06:25:58;8.17;;;1.83;;
62151;SDS011;48139;47.474;19.034;2022-09-28T06:29:01;4.60;;;2.30;;
62151;SDS011;48139;47.474;19.034;2022-09-28T06:32:04;4.15;;;2.00;;
62151;SDS011;48139;47.474;19.034;2022-09-28T06:35:09;6.25;;;2.42;;
62151;SDS011;48139;47.474;19.034;2022-09-28T06:38:11;7.65;;;1.62;;
62151;SDS011;48139;47.474;19.034;2022-09-28T06:44:18;6.20;;;1.87;;
62151;SDS011;48139;47.474;19.034;2022-09-28T06:47:22;3.28;;;1.42;;
62151;SDS011;48139;47.474;19.034;2022-09-28T06:50:26;5.25;;;1.42;;
62151;SDS011;48139;47.474;19.034;2022-09-28T06:53:36;2.58;;;1.05;;
62151;SDS011;48139;47.474;19.034;2022-09-28T06:56:41;3.08;;;1.30;;
62151;SDS011;48139;47.474;19.034;2022-09-28T06:59:44;2.87;;;1.23;;
62151;SDS011;48139;47.474;19.034;2022-09-28T07:02:47;3.28;;;1.08;;
62151;SDS011;48139;47.474;19.034;2022-09-28T07:05:51;1.55;;;1.00;;
62151;SDS011;48139;47.474;19.034;2022-09-28T07:09:06;3.65;;;1.10;;
62151;SDS011;48139;47.474;19.034;2022-09-28T07:12:33;2.92;;;1.02;;
62151;SDS011;48139;47.474;19.034;2022-09-28T07:15:36;3.08;;;1.23;;
62151;SDS011;48139;47.474;19.034;2022-09-28T07:18:39;3.80;;;1.10;;
62151;SDS011;48139;47.474;19.034;2022-09-28T07:21:43;2.08;;;1.10;;
62151;SDS011;48139;47.474;19.034;2022-09-28T07:24:49;3.70;;;1.62;;
62151;SDS011;48139;47.474;19.034;2022-09-28T07:27:58;1.67;;;0.80;;
62151;SDS011;48139;47.474;19.034;2022-09-28T07:31:01;5.57;;;1.10;;
62151;SDS011;48139;47.474;19.034;2022-09-28T07:34:05;3.15;;;1.10;;
62151;SDS011;48139;47.474;19.034;2022-09-28T07:37:08;2.47;;;1.12;;
62151;SDS011;48139;47.474;19.034;2022-09-28T07:40:12;4.90;;;1.10;;
62151;SDS011;48139;47.474;19.034;2022-09-28T07:43:34;5.35;;;1.37;;
62151;SDS011;48139;47.474;19.034;2022-09-28T07:46:37;2.15;;;1.15;;
62151;SDS011;48139;47.474;19.034;2022-09-28T07:49:40;1.77;;;0.88;;
62151;SDS011;48139;47.474;19.034;2022-09-28T07:52:43;3.37;;;1.00;;
62151;SDS011;48139;47.474;19.034;2022-09-28T07:55:53;2.03;;;0.90;;
62151;SDS011;48139;47.474;19.034;2022-09-28T07:58:57;2.72;;;1.20;;
62151;SDS011;48139;47.474;19.034;2022-09-28T08:02:00;4.78;;;1.25;;
62151;SDS011;48139;47.474;19.034;2022-09-28T08:05:03;2.00;;;0.90;;
62151;SDS011;48139;47.474;19.034;2022-09-28T08:08:06;2.78;;;1.45;;
62151;SDS011;48139;47.474;19.034;2022-09-28T08:11:09;3.58;;;1.17;;
62151;SDS011;48139;47.474;19.034;2022-09-28T08:14:14;4.68;;;1.12;;
62151;SDS011;48139;47.474;19.034;2022-09-28T08:17:17;4.03;;;1.50;;
62151;SDS011;48139;47.474;19.034;2022-09-28T08:20:23;2.47;;;1.27;;
62151;SDS011;48139;47.474;19.034;2022-09-28T08:23:44;5.10;;;1.60;;
62151;SDS011;48139;47.474;19.034;2022-09-28T08:26:46;4.55;;;1.50;;
62151;SDS011;48139;47.474;19.034;2022-09-28T08:29:51;1.98;;;1.12;;
62151;SDS011;48139;47.474;19.034;2022-09-28T08:35:59;2.78;;;1.20;;
62151;SDS011;48139;47.474;19.034;2022-09-28T08:39:03;2.90;;;1.20;;
62151;SDS011;48139;47.474;19.034;2022-09-28T08:45:13;3.75;;;1.33;;
62151;SDS011;48139;47.474;19.034;2022-09-28T08:48:36;2.47;;;1.12;;
62151;SDS011;48139;47.474;19.034;2022-09-28T08:52:12;3.83;;;1.42;;
62151;SDS011;48139;47.474;19.034;2022-09-28T08:55:25;3.12;;;1.30;;
62151;SDS011;48139;47.474;19.034;2022-09-28T08:58:33;2.63;;;0.90;;
62151;SDS011;48139;47.474;19.034;2022-09-28T09:01:41;2.10;;;0.80;;
62151;SDS011;48139;47.474;19.034;2022-09-28T09:04:49;3.60;;;1.98;;
62151;SDS011;48139;47.474;19.034;2022-09-28T09:08:00;3.40;;;1.15;;
62151;SDS011;48139;47.474;19.034;2022-09-28T09:20:58;8.13;;;1.30;;
62151;SDS011;48139;47.474;19.034;2022-09-28T09:24:22;4.25;;;1.50;;
62151;SDS011;48139;47.474;19.034;2022-09-28T09:41:09;2.42;;;1.37;;
62151;SDS011;48139;47.474;19.034;2022-09-28T09:47:54;3.33;;;0.93;;
62151;SDS011;48139;47.474;19.034;2022-09-28T09:51:15;3.37;;;1.55;;
62151;SDS011;48139;47.474;19.034;2022-09-28T09:54:24;1.00;;;0.80;;
62151;SDS011;48139;47.474;19.034;2022-09-28T09:57:40;6.57;;;1.25;;
62151;SDS011;48139;47.474;19.034;2022-09-28T10:01:01;2.47;;;1.00;;
62151;SDS011;48139;47.474;19.034;2022-09-28T10:04:24;2.42;;;1.25;;
62151;SDS011;48139;47.474;19.034;2022-09-28T10:07:38;3.62;;;1.10;;
62151;SDS011;48139;47.474;19.034;2022-09-28T10:10:49;1.70;;;1.05;;
62151;SDS011;48139;47.474;19.034;2022-09-28T10:13:55;3.45;;;1.10;;
62151;SDS011;48139;47.474;19.034;2022-09-28T10:17:03;4.40;;;1.20;;
62151;SDS011;48139;47.474;19.034;2022-09-28T10:20:16;3.22;;;1.42;;
62151;SDS011;48139;47.474;19.034;2022-09-28T10:23:21;2.80;;;1.35;;
62151;SDS011;48139;47.474;19.034;2022-09-28T10:26:31;2.78;;;1.45;;
62151;SDS011;48139;47.474;19.034;2022-09-28T10:29:42;4.12;;;1.20;;
62151;SDS011;48139;47.474;19.034;2022-09-28T10:32:52;3.17;;;1.17;;
62151;SDS011;48139;47.474;19.034;2022-09-28T10:36:00;3.28;;;1.10;;
62151;SDS011;48139;47.474;19.034;2022-09-28T10:39:21;2.37;;;1.20;;
62151;SDS011;48139;47.474;19.034;2022-09-28T10:42:34;2.22;;;1.00;;
62151;SDS011;48139;47.474;19.034;2022-09-28T10:45:37;1.77;;;1.05;;
62151;SDS011;48139;47.474;19.034;2022-09-28T10:52:31;2.72;;;0.95;;
62151;SDS011;48139;47.474;19.034;2022-09-28T10:55:40;1.73;;;0.98;;
62151;SDS011;48139;47.474;19.034;2022-09-28T10:58:43;2.30;;;1.20;;
62151;SDS011;48139;47.474;19.034;2022-09-28T11:01:46;2.83;;;1.55;;
62151;SDS011;48139;47.474;19.034;2022-09-28T11:04:55;2.70;;;1.42;;
62151;SDS011;48139;47.474;19.034;2022-09-28T11:08:01;3.10;;;1.30;;
62151;SDS011;48139;47.474;19.034;2022-09-28T11:14:38;3.20;;;1.60;;
62151;SDS011;48139;47.474;19.034;2022-09-28T11:17:44;3.65;;;1.50;;
62151;SDS011;48139;47.474;19.034;2022-09-28T11:20:47;6.25;;;2.08;;
62151;SDS011;48139;47.474;19.034;2022-09-28T11:23:58;3.20;;;1.73;;
62151;SDS011;48139;47.474;19.034;2022-09-28T11:27:03;7.70;;;2.00;;
62151;SDS011;48139;47.474;19.034;2022-09-28T11:30:20;2.42;;;1.37;;
62151;SDS011;48139;47.474;19.034;2022-09-28T11:33:43;4.90;;;2.15;;
62151;SDS011;48139;47.474;19.034;2022-09-28T11:53:27;4.95;;;2.15;;
62151;SDS011;48139;47.474;19.034;2022-09-28T11:56:38;3.42;;;1.42;;
62151;SDS011;48139;47.474;19.034;2022-09-28T12:06:28;2.47;;;1.85;;
62151;SDS011;48139;47.474;19.034;2022-09-28T12:09:46;2.95;;;1.50;;
62151;SDS011;48139;47.474;19.034;2022-09-28T12:12:59;3.80;;;1.75;;
62151;SDS011;48139;47.474;19.034;2022-09-28T12:16:18;4.60;;;1.58;;
62151;SDS011;48139;47.474;19.034;2022-09-28T12:19:47;2.12;;;1.20;;
62151;SDS011;48139;47.474;19.034;2022-09-28T12:26:03;2.85;;;1.30;;
62151;SDS011;48139;47.474;19.034;2022-09-28T12:29:44;2.67;;;1.10;;
62151;SDS011;48139;47.474;19.034;2022-09-28T12:39:35;1.95;;;0.95;;
62151;SDS011;48139;47.474;19.034;2022-09-28T12:54:00;1.30;;;0.88;;
62151;SDS011;48139;47.474;19.034;2022-09-28T13:01:01;2.78;;;0.98;;
62151;SDS011;48139;47.474;19.034;2022-09-28T13:18:12;4.72;;;1.20;;
62151;SDS011;48139;47.474;19.034;2022-09-28T13:21:43;2.15;;;0.98;;
62151;SDS011;48139;47.474;19.034;2022-09-28T13:24:54;3.25;;;1.30;;
62151;SDS011;48139;47.474;19.034;2022-09-28T13:28:01;1.55;;;0.90;;
62151;SDS011;48139;47.474;19.034;2022-09-28T13:31:06;2.40;;;0.88;;
62151;SDS011;48139;47.474;19.034;2022-09-28T13:34:12;3.28;;;0.73;;
62151;SDS011;48139;47.474;19.034;2022-09-28T13:37:22;3.37;;;1.42;;
62151;SDS011;48139;47.474;19.034;2022-09-28T13:50:28;1.42;;;0.80;;
62151;SDS011;48139;47.474;19.034;2022-09-28T13:57:12;2.75;;;1.02;;
62151;SDS011;48139;47.474;19.034;2022-09-28T14:07:09;1.65;;;0.65;;
62151;SDS011;48139;47.474;19.034;2022-09-28T14:10:23;2.95;;;0.57;;
62151;SDS011;48139;47.474;19.034;2022-09-28T14:16:43;1.70;;;0.90;;
62151;SDS011;48139;47.474;19.034;2022-09-28T14:19:51;8.50;;;1.90;;
62151;SDS011;48139;47.474;19.034;2022-09-28T14:26:47;3.00;;;0.90;;
62151;SDS011;48139;47.474;19.034;2022-09-28T14:29:49;2.15;;;0.75;;
62151;SDS011;48139;47.474;19.034;2022-09-28T14:33:28;2.92;;;1.12;;
62151;SDS011;48139;47.474;19.034;2022-09-28T14:36:36;6.07;;;1.15;;
62151;SDS011;48139;47.474;19.034;2022-09-28T14:40:07;1.58;;;0.95;;
62151;SDS011;48139;47.474;19.034;2022-09-28T14:46:45;1.37;;;0.57;;
62151;SDS011;48139;47.474;19.034;2022-09-28T14:49:50;4.10;;;1.08;;
62151;SDS011;48139;47.474;19.034;2022-09-28T14:53:05;5.40;;;1.15;;
62151;SDS011;48139;47.474;19.034;2022-09-28T14:56:13;1.40;;;1.00;;
62151;SDS011;48139;47.474;19.034;2022-09-28T14:59:24;4.10;;;1.20;;
62151;SDS011;48139;47.474;19.034;2022-09-28T15:02:31;2.92;;;1.15;;
62151;SDS011;48139;47.474;19.034;2022-09-28T15:05:45;1.65;;;0.98;;
62151;SDS011;48139;47.474;19.034;2022-09-28T15:08:50;7.37;;;1.52;;
62151;SDS011;48139;47.474;19.034;2022-09-28T15:11:59;5.47;;;1.70;;
62151;SDS011;48139;47.474;19.034;2022-09-28T15:15:03;2.45;;;0.90;;
62151;SDS011;48139;47.474;19.034;2022-09-28T15:21:58;4.07;;;1.25;;
62151;SDS011;48139;47.474;19.034;2022-09-28T15:25:01;1.45;;;0.90;;
62151;SDS011;48139;47.474;19.034;2022-09-28T15:28:16;2.80;;;1.05;;
62151;SDS011;48139;47.474;19.034;2022-09-28T15:31:21;3.47;;;1.10;;
62151;SDS011;48139;47.474;19.034;2022-09-28T15:37:49;2.92;;;0.95;;
62151;SDS011;48139;47.474;19.034;2022-09-28T15:40:55;3.83;;;1.05;;
62151;SDS011;48139;47.474;19.034;2022-09-28T15:47:23;5.32;;;1.65;;
62151;SDS011;48139;47.474;19.034;2022-09-28T15:50:28;3.67;;;1.05;;
